createdAt,value
2018-07-27T00:00:12.826Z,17.60
2018-07-27T00:02:46.967Z,17.50
2018-07-27T00:05:20.633Z,17.50
2018-07-27T00:07:52.952Z,17.50
2018-07-27T00:10:25.703Z,17.40
2018-07-27T00:12:59.564Z,17.50
2018-07-27T00:15:32.132Z,17.50
2018-07-27T00:18:05.044Z,17.50
2018-07-27T00:20:38.038Z,17.50
2018-07-27T00:23:10.502Z,17.60
2018-07-27T00:25:43.483Z,17.60
2018-07-27T00:28:16.658Z,17.60
2018-07-27T00:30:49.133Z,17.70
2018-07-27T00:33:22.111Z,17.70
2018-07-27T00:35:54.109Z,17.60
2018-07-27T00:38:27.100Z,17.60
2018-07-27T00:40:59.820Z,17.60
2018-07-27T00:43:32.663Z,17.70
2018-07-27T00:46:05.318Z,17.70
2018-07-27T00:48:38.510Z,17.70
2018-07-27T00:51:10.621Z,17.60
2018-07-27T00:53:43.167Z,17.60
2018-07-27T00:56:16.545Z,17.60
2018-07-27T00:58:49.360Z,17.60
2018-07-27T01:01:21.514Z,17.50
2018-07-27T01:03:54.177Z,17.50
2018-07-27T01:06:26.421Z,17.50
2018-07-27T01:08:59.564Z,17.50
2018-07-27T01:11:31.863Z,17.50
2018-07-27T01:14:05.813Z,17.50
2018-07-27T01:16:38.847Z,17.50
2018-07-27T01:21:43.258Z,17.50
2018-07-27T01:24:15.834Z,17.50
2018-07-27T01:26:49.260Z,17.40
2018-07-27T01:29:22.127Z,17.40
2018-07-27T01:31:54.718Z,17.40
2018-07-27T01:34:28.202Z,17.30
2018-07-27T01:37:00.708Z,17.30
2018-07-27T01:39:33.527Z,17.20
2018-07-27T01:42:06.292Z,17.20
2018-07-27T01:44:38.596Z,17.10
2018-07-27T01:47:10.995Z,17.10
2018-07-27T01:49:44.119Z,17.10
2018-07-27T01:52:17.627Z,17.10
2018-07-27T01:54:50.868Z,17.00
2018-07-27T01:59:56.839Z,17.00
2018-07-27T02:02:29.560Z,17.00
2018-07-27T02:05:01.628Z,17.00
2018-07-27T02:07:34.525Z,17.00
2018-07-27T02:10:07.104Z,16.90
2018-07-27T02:12:39.105Z,16.90
2018-07-27T02:15:11.868Z,16.80
2018-07-27T02:17:45.211Z,16.80
2018-07-27T02:20:18.794Z,16.80
2018-07-27T02:22:52.726Z,16.80
2018-07-27T02:25:25.262Z,16.80
2018-07-27T02:27:57.825Z,16.80
2018-07-27T02:30:30.009Z,16.80
2018-07-27T02:33:02.279Z,16.90
2018-07-27T02:35:36.015Z,16.90
2018-07-27T02:38:09.034Z,17.00
2018-07-27T02:40:41.399Z,17.00
2018-07-27T02:43:14.873Z,17.00
2018-07-27T02:45:46.932Z,17.00
2018-07-27T02:48:19.343Z,16.90
2018-07-27T02:50:52.531Z,16.90
2018-07-27T02:53:24.982Z,16.80
2018-07-27T02:55:57.606Z,16.80
2018-07-27T02:58:29.752Z,16.70
2018-07-27T03:01:02.430Z,16.70
2018-07-27T03:03:34.988Z,16.70
2018-07-27T03:06:08.879Z,16.70
2018-07-27T03:08:42.004Z,16.70
2018-07-27T03:11:15.210Z,16.80
2018-07-27T03:13:47.771Z,16.80
2018-07-27T03:16:20.771Z,16.80
2018-07-27T03:18:54.260Z,16.80
2018-07-27T03:21:32.299Z,16.80
2018-07-27T03:24:04.206Z,16.80
2018-07-27T03:26:36.788Z,16.90
2018-07-27T03:29:09.305Z,16.90
2018-07-27T03:31:42.816Z,16.80
2018-07-27T03:34:15.712Z,16.80
2018-07-27T03:36:48.497Z,16.80
2018-07-27T03:39:21.711Z,16.80
2018-07-27T03:41:54.624Z,16.80
2018-07-27T03:44:31.723Z,16.90
2018-07-27T03:47:04.303Z,17.00
2018-07-27T03:49:37.228Z,17.10
2018-07-27T03:52:09.860Z,17.10
2018-07-27T03:54:42.778Z,17.20
2018-07-27T03:57:15.182Z,17.20
2018-07-27T03:59:47.440Z,17.30
2018-07-27T04:02:20.681Z,17.30
2018-07-27T04:04:53.228Z,17.40
2018-07-27T04:07:26.380Z,17.40
2018-07-27T04:09:59.275Z,17.40
2018-07-27T04:12:31.529Z,17.50
2018-07-27T04:15:04.223Z,17.60
2018-07-27T04:17:37.070Z,17.60
2018-07-27T04:20:09.577Z,17.60
2018-07-27T04:22:42.555Z,17.70
2018-07-27T04:25:16.021Z,17.80
2018-07-27T04:27:48.652Z,17.90
2018-07-27T04:30:21.134Z,18.00
2018-07-27T04:32:53.358Z,18.10
2018-07-27T04:35:25.963Z,18.20
2018-07-27T04:37:58.691Z,18.20
2018-07-27T04:40:32.051Z,18.30
2018-07-27T04:43:05.130Z,18.50
2018-07-27T04:45:37.677Z,18.50
2018-07-27T04:48:10.840Z,18.70
2018-07-27T04:50:43.139Z,18.80
2018-07-27T04:55:48.564Z,18.90
2018-07-27T04:58:21.107Z,19.00
2018-07-27T05:00:53.644Z,19.00
2018-07-27T05:03:26.322Z,19.10
2018-07-27T05:05:58.758Z,19.10
2018-07-27T05:08:31.399Z,19.20
2018-07-27T05:11:03.973Z,19.20
2018-07-27T05:13:36.663Z,19.30
2018-07-27T05:16:08.859Z,19.30
2018-07-27T05:18:43.543Z,19.40
2018-07-27T05:21:16.466Z,19.40
2018-07-27T05:23:48.530Z,19.50
2018-07-27T05:26:21.724Z,19.50
2018-07-27T05:28:54.783Z,19.60
2018-07-27T05:31:28.257Z,19.60
2018-07-27T05:34:01.057Z,19.50
2018-07-27T05:36:34.249Z,19.50
2018-07-27T05:39:10.560Z,19.50
2018-07-27T05:41:43.274Z,19.50
2018-07-27T05:44:18.590Z,19.50
2018-07-27T05:46:51.139Z,19.40
2018-07-27T05:49:25.439Z,19.40
2018-07-27T05:51:58.784Z,19.40
2018-07-27T05:54:32.406Z,19.40
2018-07-27T05:57:05.269Z,19.30
2018-07-27T05:59:37.820Z,19.30
2018-07-27T06:02:11.911Z,19.30
2018-07-27T08:14:21.595Z,19.30
2018-07-27T08:16:54.232Z,24.10
2018-07-27T08:19:27.004Z,24.10
2018-07-27T08:21:59.846Z,24.20
2018-07-27T08:24:32.135Z,24.30
2018-07-27T08:27:05.438Z,24.30
2018-07-27T08:29:41.428Z,24.40
2018-07-27T08:32:14.311Z,24.40
2018-07-27T08:34:46.935Z,24.30
2018-07-27T08:39:51.594Z,24.60
2018-07-27T08:42:24.501Z,24.70
2018-07-27T08:44:57.458Z,24.70
2018-07-27T08:47:30.299Z,24.70
2018-07-27T08:50:03.390Z,24.80
2018-07-27T08:52:35.859Z,24.90
2018-07-27T08:55:08.706Z,24.90
2018-07-27T08:57:41.257Z,25.00
2018-07-27T09:00:14.010Z,25.10
2018-07-27T09:02:46.710Z,25.40
2018-07-27T09:05:19.682Z,25.80
2018-07-27T09:07:52.252Z,26.20
2018-07-27T09:10:24.382Z,26.40
2018-07-27T09:12:57.327Z,26.60
2018-07-27T09:15:29.764Z,26.70
2018-07-27T09:18:02.088Z,26.60
2018-07-27T09:20:34.510Z,26.60
2018-07-27T09:23:07.061Z,26.50
2018-07-27T09:25:40.211Z,26.60
2018-07-27T09:28:12.781Z,26.80
2018-07-27T09:33:16.761Z,26.80
2018-07-27T09:35:49.321Z,27.00
2018-07-27T09:38:22.592Z,27.20
2018-07-27T09:43:26.904Z,27.70
2018-07-27T09:45:59.382Z,27.70
2018-07-27T09:48:31.552Z,27.70
2018-07-27T09:51:03.732Z,27.80
2018-07-27T09:53:35.833Z,28.00
2018-07-27T09:56:07.835Z,28.10
2018-07-27T09:58:39.875Z,28.10
2018-07-27T10:01:16.999Z,27.80
2018-07-27T10:03:49.621Z,27.70
2018-07-27T10:06:21.833Z,27.80
2018-07-27T10:08:54.488Z,27.80
2018-07-27T10:11:26.746Z,27.90
2018-07-27T10:17:07.093Z,28.30
2018-07-27T10:19:39.342Z,28.30
2018-07-27T10:22:11.986Z,28.50
2018-07-27T10:24:44.801Z,28.50
2018-07-27T10:29:50.512Z,28.60
2018-07-27T10:32:28.764Z,28.70
2018-07-27T10:35:02.650Z,29.00
2018-07-27T10:37:35.918Z,29.10
2018-07-27T10:40:10.175Z,29.20
2018-07-27T10:42:44.701Z,29.30
2018-07-27T10:45:18.137Z,29.20
2018-07-27T10:47:51.963Z,29.10
2018-07-27T10:50:25.935Z,29.20
2018-07-27T10:53:00.651Z,29.00
2018-07-27T10:55:33.724Z,28.90
2018-07-27T10:58:06.860Z,28.80
2018-07-27T11:00:40.935Z,29.00
2018-07-27T11:03:14.561Z,29.20
2018-07-27T11:05:49.419Z,29.20
2018-07-27T11:10:54.993Z,28.70
2018-07-27T11:13:29.215Z,28.70
2018-07-27T11:18:34.864Z,29.00
2018-07-27T11:21:07.730Z,29.10
2018-07-27T11:23:41.394Z,29.20
2018-07-27T11:26:15.030Z,29.40
2018-07-27T11:28:48.805Z,29.60
2018-07-27T11:31:21.757Z,29.60
2018-07-27T11:33:55.575Z,29.70
2018-07-27T11:36:29.340Z,29.90
2018-07-27T11:39:04.855Z,30.00
2018-07-27T11:41:38.300Z,30.00
2018-07-27T11:44:12.063Z,29.90
2018-07-27T11:46:46.240Z,29.70
2018-07-27T11:49:20.023Z,29.50
2018-07-27T11:51:53.669Z,29.40
2018-07-27T11:54:27.745Z,29.30
2018-07-27T11:57:00.546Z,29.40
2018-07-27T11:59:34.383Z,29.60
2018-07-27T12:02:07.685Z,29.60
2018-07-27T12:04:41.440Z,29.60
2018-07-27T12:07:16.049Z,29.80
2018-07-27T12:09:49.009Z,30.00
2018-07-27T12:12:22.730Z,30.00
2018-07-27T12:14:56.969Z,30.00
2018-07-27T12:17:31.132Z,30.10
2018-07-27T12:20:04.612Z,30.30
2018-07-27T12:22:38.180Z,30.50
2018-07-27T12:25:11.738Z,30.50
2018-07-27T12:27:44.999Z,30.60
2018-07-27T12:30:19.175Z,30.70
2018-07-27T12:32:52.620Z,30.80
2018-07-27T12:35:26.990Z,30.80
2018-07-27T12:38:00.437Z,30.80
2018-07-27T12:40:33.638Z,30.70
2018-07-27T12:43:07.096Z,30.50
2018-07-27T12:45:40.389Z,30.30
2018-07-27T12:48:13.537Z,30.10
2018-07-27T12:50:47.833Z,30.10
2018-07-27T12:53:21.620Z,30.10
2018-07-27T12:55:54.880Z,30.10
2018-07-27T12:58:28.197Z,30.20
2018-07-27T13:01:05.457Z,30.20
2018-07-27T13:03:39.079Z,30.40
2018-07-27T13:06:13.010Z,30.40
2018-07-27T13:11:19.410Z,30.40
2018-07-27T13:13:53.191Z,29.90
2018-07-27T13:16:26.977Z,29.40
2018-07-27T13:19:00.898Z,28.60
2018-07-27T13:21:36.247Z,28.10
2018-07-27T13:24:09.769Z,27.80
2018-07-27T13:26:43.084Z,27.70
2018-07-27T13:31:51.775Z,27.10
2018-07-27T13:34:44.984Z,27.00
2018-07-27T13:39:51.215Z,26.40
2018-07-27T13:44:58.783Z,26.00
2018-07-27T13:50:04.946Z,25.70
2018-07-27T13:52:38.167Z,25.70
2018-07-27T13:55:11.543Z,25.60
2018-07-27T13:57:44.529Z,25.60
2018-07-27T14:00:18.412Z,25.50
2018-07-27T14:02:51.702Z,25.30
2018-07-27T14:05:24.553Z,24.90
2018-07-27T14:07:58.339Z,24.70
2018-07-27T14:10:31.051Z,24.40
2018-07-27T14:13:04.017Z,24.20
2018-07-27T14:15:38.153Z,24.00
2018-07-27T14:18:11.898Z,23.70
2018-07-27T14:20:45.434Z,23.60
2018-07-27T14:23:18.781Z,23.50
2018-07-27T14:25:52.348Z,23.50
2018-07-27T14:28:26.000Z,23.50
2018-07-27T14:30:59.301Z,23.40
2018-07-27T14:33:32.154Z,23.30
2018-07-27T14:36:05.379Z,23.20
2018-07-27T14:38:38.908Z,22.90
2018-07-27T14:41:12.374Z,22.70
2018-07-27T14:43:45.433Z,22.50
2018-07-27T14:48:50.865Z,22.30
2018-07-27T14:51:24.568Z,22.20
2018-07-27T14:53:57.931Z,22.20
2018-07-27T14:56:32.414Z,22.20
2018-07-27T14:59:06.754Z,22.30
2018-07-27T15:01:41.073Z,22.30
2018-07-27T15:04:14.996Z,22.40
2018-07-27T15:06:47.804Z,22.50
2018-07-27T15:09:21.243Z,22.70
2018-07-27T15:11:54.655Z,22.80
2018-07-27T15:14:28.107Z,23.00
2018-07-27T15:17:01.919Z,23.00
2018-07-27T15:19:35.621Z,23.10
2018-07-27T15:22:09.470Z,23.20
2018-07-27T15:24:43.044Z,23.30
2018-07-27T15:27:16.817Z,23.40
2018-07-27T15:29:49.532Z,23.50
2018-07-27T15:32:23.234Z,23.50
2018-07-27T15:34:56.828Z,23.60
2018-07-27T15:37:29.958Z,23.80
2018-07-27T15:40:03.376Z,23.80
2018-07-27T15:42:36.768Z,23.90
2018-07-27T15:45:10.838Z,23.90
2018-07-27T15:47:44.216Z,23.90
2018-07-27T15:50:16.171Z,24.00
2018-07-27T15:52:48.095Z,24.00
2018-07-27T15:55:20.996Z,24.00
2018-07-27T15:57:53.264Z,23.90
2018-07-27T16:00:25.568Z,23.90
2018-07-27T16:02:57.692Z,23.90
2018-07-27T16:05:29.925Z,24.00
2018-07-27T16:08:02.356Z,24.00
2018-07-27T16:10:34.440Z,24.10
2018-07-27T16:13:06.826Z,24.10
2018-07-27T16:15:39.317Z,24.10
2018-07-27T16:18:11.531Z,24.10
2018-07-27T16:20:43.999Z,24.10
2018-07-27T16:23:16.451Z,24.00
2018-07-27T16:25:48.825Z,24.00
2018-07-27T16:28:21.170Z,23.90
2018-07-27T16:30:53.798Z,23.90
2018-07-27T16:33:26.525Z,23.80
2018-07-27T16:35:58.649Z,23.70
2018-07-27T16:38:30.811Z,23.70
2018-07-27T16:41:03.875Z,23.60
2018-07-27T16:46:09.216Z,23.60
2018-07-27T16:48:41.440Z,23.50
2018-07-27T16:51:13.665Z,23.50
2018-07-27T16:53:45.777Z,23.40
2018-07-27T16:56:18.119Z,23.40
2018-07-27T16:58:51.102Z,23.30
2018-07-27T17:01:23.358Z,23.30
2018-07-27T17:06:27.491Z,23.10
2018-07-27T17:08:59.598Z,23.00
2018-07-27T17:11:31.616Z,22.90
2018-07-27T17:14:03.745Z,22.90
2018-07-27T17:16:37.100Z,22.80
2018-07-27T17:21:41.453Z,22.70
2018-07-27T17:26:46.015Z,22.60
2018-07-27T17:29:18.464Z,22.50
2018-07-27T17:34:23.674Z,22.50
2018-07-27T17:36:55.731Z,22.40
2018-07-27T17:39:27.891Z,22.40
2018-07-27T17:42:00.165Z,22.40
2018-07-27T17:44:32.334Z,22.30
2018-07-27T17:47:04.330Z,22.30
2018-07-27T17:49:36.444Z,22.30
2018-07-27T17:52:08.538Z,22.20
2018-07-27T17:54:40.519Z,22.10
2018-07-27T17:57:12.695Z,22.10
2018-07-27T17:59:44.752Z,22.00
2018-07-27T18:02:16.821Z,21.90
2018-07-27T18:04:49.303Z,21.80
2018-07-27T18:07:21.558Z,21.80
2018-07-27T18:09:54.274Z,21.70
2018-07-27T18:12:26.956Z,21.70
2018-07-27T18:14:58.858Z,21.70
2018-07-27T18:17:31.857Z,21.60
2018-07-27T18:22:35.789Z,21.50
2018-07-27T18:25:15.848Z,21.50
2018-07-27T18:27:48.202Z,21.40
2018-07-27T18:30:20.555Z,21.40
2018-07-27T18:32:52.862Z,21.50
2018-07-27T18:35:25.238Z,21.50
2018-07-27T18:40:30.104Z,21.40
2018-07-27T18:43:02.131Z,21.40
2018-07-27T18:45:34.279Z,21.30
2018-07-27T18:48:06.364Z,21.30
2018-07-27T18:50:38.891Z,21.30
2018-07-27T18:53:11.306Z,21.20
2018-07-27T18:55:43.766Z,21.20
2018-07-27T18:58:16.705Z,21.10
2018-07-27T19:00:49.130Z,21.10
2018-07-27T19:03:21.247Z,21.00
2018-07-27T19:05:53.367Z,20.90
2018-07-27T19:08:25.951Z,20.80
2018-07-27T19:10:58.121Z,20.70
2018-07-27T19:13:30.608Z,20.70
2018-07-27T19:16:02.697Z,20.60
2018-07-27T19:18:34.976Z,20.50
2018-07-27T19:21:07.474Z,20.50
2018-07-27T19:23:40.191Z,20.40
2018-07-27T19:26:12.678Z,20.40
2018-07-27T19:28:45.020Z,20.40
2018-07-27T19:31:18.122Z,20.40
2018-07-27T19:33:50.463Z,20.40
2018-07-27T19:36:22.732Z,20.40
2018-07-27T19:41:26.596Z,20.40
2018-07-27T19:43:59.156Z,20.30
2018-07-27T19:46:32.212Z,20.30
2018-07-27T19:49:04.626Z,20.30
2018-07-27T19:51:37.440Z,20.30
2018-07-27T19:54:09.637Z,20.30
2018-07-27T19:56:42.235Z,20.30
2018-07-27T19:59:14.541Z,20.30
2018-07-27T20:01:47.055Z,20.30
2018-07-27T20:04:19.436Z,20.30
2018-07-27T20:06:52.035Z,20.30
2018-07-27T20:09:24.106Z,20.40
2018-07-27T20:11:57.736Z,20.30
2018-07-27T20:14:29.887Z,20.30
2018-07-27T20:17:02.033Z,20.40
2018-07-27T20:19:34.025Z,20.40
2018-07-27T20:24:37.929Z,20.40
2018-07-27T20:27:10.050Z,20.50
2018-07-27T20:29:41.644Z,20.50
2018-07-27T20:32:13.798Z,20.50
2018-07-27T20:34:46.350Z,20.50
2018-07-27T20:37:18.615Z,20.50
2018-07-27T20:39:51.284Z,20.50
2018-07-27T20:42:24.068Z,20.50
2018-07-27T20:44:57.646Z,20.50
2018-07-27T20:47:29.759Z,20.50
2018-07-27T20:50:02.803Z,20.50
2018-07-27T20:52:34.913Z,20.50
2018-07-27T20:55:06.926Z,20.40
2018-07-27T20:57:39.199Z,20.40
2018-07-27T21:00:13.055Z,20.40
2018-07-27T21:05:18.142Z,20.40
2018-07-27T21:07:50.540Z,20.30
2018-07-27T21:10:22.891Z,20.30
2018-07-27T21:12:55.048Z,20.30
2018-07-27T21:15:27.126Z,20.30
2018-07-27T21:17:59.120Z,20.30
2018-07-27T21:20:32.020Z,20.40
2018-07-27T21:23:04.420Z,20.40
2018-07-27T21:25:37.356Z,20.30
2018-07-27T21:28:09.521Z,20.20
2018-07-27T21:30:42.176Z,20.20
2018-07-27T21:33:14.696Z,20.10
2018-07-27T21:35:46.906Z,20.00
2018-07-27T21:38:19.092Z,20.00
2018-07-27T21:40:51.136Z,19.90
2018-07-27T21:43:23.334Z,19.90
2018-07-27T21:45:56.857Z,19.90
2018-07-27T21:48:29.290Z,19.90
2018-07-27T21:51:01.745Z,19.70
2018-07-27T21:53:33.669Z,19.70
2018-07-27T21:56:05.824Z,19.60
2018-07-27T21:58:38.285Z,19.60
2018-07-27T22:01:10.713Z,19.50
2018-07-27T22:03:43.016Z,19.50
2018-07-27T22:06:15.386Z,19.50
2018-07-27T22:08:47.515Z,19.50
2018-07-27T22:11:19.540Z,19.40
2018-07-27T22:13:51.691Z,19.40
2018-07-27T22:16:23.700Z,19.40
2018-07-27T22:18:55.850Z,19.40
2018-07-27T22:21:27.755Z,19.30
2018-07-27T22:23:59.927Z,19.30
2018-07-27T22:26:32.142Z,19.20
2018-07-27T22:29:05.245Z,19.10
2018-07-27T22:31:37.495Z,19.10
2018-07-27T22:34:09.525Z,19.00
2018-07-27T22:36:41.201Z,19.00
2018-07-27T22:39:13.218Z,18.90
2018-07-27T22:41:45.160Z,18.90
2018-07-27T22:44:16.866Z,18.80
2018-07-27T22:46:49.739Z,18.80
2018-07-27T22:49:21.898Z,18.80
2018-07-27T22:51:53.775Z,18.80
2018-07-27T22:54:25.668Z,18.80
2018-07-27T22:56:57.608Z,18.80
2018-07-27T22:59:29.314Z,18.80
2018-07-27T23:02:01.310Z,18.80
2018-07-27T23:04:33.383Z,18.80
2018-07-27T23:07:05.277Z,18.70
2018-07-27T23:12:08.302Z,18.80
2018-07-27T23:17:11.473Z,18.90
2018-07-27T23:19:43.357Z,18.80
2018-07-27T23:24:46.354Z,18.80
2018-07-27T23:27:19.122Z,18.70
2018-07-27T23:29:51.269Z,18.70
2018-07-27T23:37:25.366Z,18.70
2018-07-27T23:39:57.327Z,18.70
2018-07-27T23:42:29.715Z,18.70
2018-07-27T23:45:01.202Z,18.70
2018-07-27T23:50:04.405Z,18.60
2018-07-27T23:52:36.531Z,18.60
2018-07-27T23:57:39.769Z,18.60
